OVE weather

Oroville Municipal Airport
Oroville, California, United States

Public forecast

Using degrees Fahrenheit for public forecast. Weather courtesy of forecast.io.

Current aviation weather report (METAR) for Oroville Municipal Airport

Retrieved 2020/02/17 10:53 UTC (1 hour ago):

KOVE 171053Z AUTO VRB03KT 10SM CLR 09/03 A3013 RMK AO2 SLP206 T00940028

Closest aviation forecast (TAF) to Oroville Municipal Airport

Forecast is more than 12 hours old.

Closest forecast is Beale Air Force Base, 22.8 nm (42.2 km) SSE. Retrieved 2020/02/16 19:20 UTC (17 hours ago):

TAF KBAB 161900Z 1619/1801 15009KT 9999 FEW150 SCT220 QNH3017INS BECMG 1706/1707 33012KT 9999 FEW180 QNH3010INS BECMG 1715/1716 36012G18KT 9999 SKC QNH3013INS TX18/1623Z TN06/1712Z LAST NO AMDS AFT 1620 NEXT 1814